Time;durP1;ratioP1;P1;durP2;ratioP2;P2;SDS_P1;SDS_P2;PMS_P1;PMS_P2;Temp;Humidity;BMP_temperature;BMP_pressure;BME280_temperature;BME280_humidity;BME280_pressure;Samples;Min_cycle;Max_cycle;Signal;HPM_P1;HPM_P2
2021/09/07 00:00:32;;;;;;;30.75;18.42;;;;;;;17.87;69.49;102484.44;4889205;29;20025;-90
2021/09/07 00:02:58;;;;;;;35.53;19.10;;;;;;;17.83;69.50;102488.25;4872272;29;20061;-88
2021/09/07 00:05:23;;;;;;;31.00;18.70;;;;;;;17.77;69.92;102488.59;4888215;29;20033;-88
2021/09/07 00:07:49;;;;;;;32.90;19.02;;;;;;;17.74;70.10;102489.66;4888283;29;20033;-88
2021/09/07 00:10:14;;;;;;;36.22;19.67;;;;;;;17.71;70.34;102479.13;4887470;29;20373;-87
2021/09/07 00:12:40;;;;;;;32.88;19.05;;;;;;;17.68;70.26;102485.50;4887377;29;20048;-87
2021/09/07 00:15:07;;;;;;;32.40;18.80;;;;;;;17.62;70.09;102480.50;4855325;29;20021;-87
2021/09/07 00:17:32;;;;;;;31.00;17.48;;;;;;;17.56;70.49;102483.53;4871232;29;20033;-88
2021/09/07 00:19:59;;;;;;;29.23;17.67;;;;;;;17.55;70.42;102481.81;4887439;29;20048;-89
2021/09/07 00:22:25;;;;;;;32.00;18.25;;;;;;;17.49;70.77;102472.31;4895486;29;20044;-88
2021/09/07 00:24:51;;;;;;;34.38;19.15;;;;;;;17.42;70.88;102473.59;4850585;29;20057;-88
2021/09/07 00:27:16;;;;;;;32.40;17.10;;;;;;;17.37;70.95;102476.53;4855866;29;20036;-87
2021/09/07 00:29:42;;;;;;;32.42;19.23;;;;;;;17.33;71.26;102463.44;4870622;29;20045;-87
2021/09/07 00:32:08;;;;;;;31.10;17.52;;;;;;;17.27;71.40;102470.00;4889669;29;20051;-87
2021/09/07 00:36:59;;;;;;;28.08;16.80;;;;;;;17.24;71.16;102465.66;4893551;23;20057;-87
2021/09/07 00:39:25;;;;;;;30.00;17.75;;;;;;;17.21;71.54;102459.63;4885388;29;20105;-86
2021/09/07 00:41:51;;;;;;;25.50;15.55;;;;;;;17.18;71.39;102456.19;4887008;29;20085;-86
2021/09/07 00:44:23;;;;;;;37.72;20.92;;;;;;;17.21;72.43;102456.97;4890858;29;20052;-87
2021/09/07 00:46:57;;;;;;;34.70;19.83;;;;;;;17.23;72.14;102457.72;4874069;29;20040;-87
2021/09/07 00:49:25;;;;;;;35.88;19.92;;;;;;;17.24;72.47;102449.63;4889739;29;20037;-88
2021/09/07 00:51:51;;;;;;;34.88;19.40;;;;;;;17.23;72.24;102447.91;4890333;29;20036;-87
2021/09/07 00:54:19;;;;;;;31.35;17.48;;;;;;;17.21;72.10;102451.63;4889320;29;20021;-87
2021/09/07 00:56:44;;;;;;;33.10;18.85;;;;;;;17.17;72.22;102449.13;4892604;29;20028;-87
2021/09/07 00:59:13;;;;;;;30.85;17.92;;;;;;;17.13;72.33;102454.72;4877452;29;20029;-87
2021/09/07 01:01:39;;;;;;;31.40;18.98;;;;;;;17.05;72.20;102445.25;4908897;29;20025;-87
2021/09/07 01:04:06;;;;;;;36.83;19.33;;;;;;;17.05;72.05;102445.25;4876667;29;20383;-87
2021/09/07 01:06:32;;;;;;;32.85;18.33;;;;;;;17.02;72.22;102449.94;4892413;29;20024;-88
2021/09/07 01:08:58;;;;;;;29.73;17.40;;;;;;;16.98;72.02;102449.22;4892225;29;20043;-87
2021/09/07 01:11:24;;;;;;;30.55;18.10;;;;;;;16.95;72.11;102454.75;4892258;29;20059;-87
2021/09/07 01:13:49;;;;;;;34.08;18.88;;;;;;;16.94;72.21;102453.03;4891532;29;20080;-87
2021/09/07 01:16:15;;;;;;;30.85;17.92;;;;;;;16.89;72.25;102452.41;4906983;29;20059;-88
2021/09/07 01:18:40;;;;;;;30.27;17.73;;;;;;;16.86;72.00;102449.91;4908910;29;20153;-88
2021/09/07 01:21:10;;;;;;;36.00;19.38;;;;;;;16.80;72.44;102441.25;4908976;29;20416;-87
2021/09/07 01:23:41;;;;;;;29.70;17.77;;;;;;;16.78;72.28;102459.22;4892106;29;20028;-87
2021/09/07 01:26:09;;;;;;;32.60;17.60;;;;;;;16.75;72.19;102447.81;4892147;29;20029;-87
2021/09/07 01:28:35;;;;;;;35.28;20.27;;;;;;;16.67;72.57;102456.25;4892069;29;20036;-88
2021/09/07 01:31:04;;;;;;;32.40;18.15;;;;;;;16.65;72.53;102459.00;4892112;29;20544;-87
2021/09/07 01:33:30;;;;;;;30.10;17.38;;;;;;;16.62;72.67;102444.94;4908597;29;20052;-87
2021/09/07 01:35:56;;;;;;;30.38;18.73;;;;;;;16.61;72.60;102448.56;4874682;29;20045;-87
2021/09/07 01:38:23;;;;;;;33.53;19.73;;;;;;;16.55;73.11;102444.41;4892113;29;20048;-88
2021/09/07 01:40:59;;;;;;;31.13;18.00;;;;;;;16.50;73.04;102450.00;4878358;29;20051;-87
2021/09/07 01:43:30;;;;;;;34.55;19.80;;;;;;;16.48;73.07;102457.22;4873619;29;20052;-87
2021/09/07 01:46:06;;;;;;;33.13;18.73;;;;;;;16.45;73.17;102446.69;4902129;29;20133;-87
2021/09/07 01:48:35;;;;;;;40.13;21.13;;;;;;;16.41;74.12;102453.16;4901703;29;20024;-86
2021/09/07 01:51:02;;;;;;;39.25;20.95;;;;;;;16.40;74.12;102449.63;4899690;29;20069;-87
2021/09/07 01:53:40;;;;;;;31.95;18.30;;;;;;;16.39;74.00;102450.56;4884111;29;20104;-86
2021/09/07 01:56:23;;;;;;;37.30;18.73;;;;;;;16.37;74.24;102454.22;4884352;29;20033;-86
2021/09/07 01:58:48;;;;;;;36.92;20.70;;;;;;;16.34;74.37;102454.41;4896292;29;20032;-86
2021/09/07 02:01:14;;;;;;;32.08;18.65;;;;;;;16.33;74.63;102456.22;4881389;29;20064;-86
2021/09/07 02:03:39;;;;;;;38.88;20.23;;;;;;;16.30;74.65;102456.38;4881717;29;20061;-86
2021/09/07 02:06:05;;;;;;;41.08;21.67;;;;;;;16.28;74.86;102452.91;4900141;29;20116;-86
2021/09/07 02:08:30;;;;;;;38.35;20.60;;;;;;;16.22;75.15;102456.78;4919154;29;20076;-88
2021/09/07 02:10:59;;;;;;;42.92;23.60;;;;;;;16.18;75.52;102457.84;4912288;29;20041;-87
2021/09/07 02:13:25;;;;;;;40.80;22.35;;;;;;;16.17;75.07;102457.03;4911563;29;20045;-86
2021/09/07 02:15:51;;;;;;;32.88;18.42;;;;;;;16.17;74.56;102464.16;4877499;29;20123;-86
2021/09/07 02:18:18;;;;;;;43.30;23.10;;;;;;;16.11;75.41;102467.13;4891716;29;20032;-88
2021/09/07 02:20:49;;;;;;;35.30;19.40;;;;;;;16.09;75.19;102459.19;4910698;29;20039;-88
2021/09/07 02:23:14;;;;;;;42.80;21.75;;;;;;;16.09;75.80;102466.34;4894071;29;20031;-87
2021/09/07 02:25:40;;;;;;;39.53;22.45;;;;;;;16.08;75.92;102464.63;4912691;29;20041;-87
2021/09/07 02:28:05;;;;;;;40.10;21.10;;;;;;;16.04;76.06;102471.91;4917867;29;20036;-87
2021/09/07 02:30:31;;;;;;;43.33;23.35;;;;;;;15.98;76.24;102462.41;4919747;29;20033;-88
2021/09/07 02:32:59;;;;;;;41.20;22.35;;;;;;;15.97;76.60;102466.00;4905642;29;20028;-88
2021/09/07 02:35:28;;;;;;;42.92;23.15;;;;;;;15.98;76.90;102467.75;4904705;29;20036;-88
2021/09/07 02:37:54;;;;;;;35.92;20.88;;;;;;;15.98;76.44;102464.22;4917594;29;20067;-87
2021/09/07 02:40:22;;;;;;;42.40;22.42;;;;;;;15.98;76.51;102458.88;4879903;29;20060;-87
2021/09/07 02:42:47;;;;;;;43.17;22.85;;;;;;;15.98;76.90;102450.88;4893537;29;20040;-89
2021/09/07 02:45:13;;;;;;;40.35;21.92;;;;;;;15.95;76.70;102454.53;4896034;29;20037;-87
2021/09/07 02:47:40;;;;;;;38.72;21.75;;;;;;;15.91;76.79;102450.28;4910341;29;20028;-88
2021/09/07 02:50:10;;;;;;;40.85;21.60;;;;;;;15.88;76.38;102456.63;4892292;29;20103;-87
2021/09/07 02:52:35;;;;;;;37.47;21.05;;;;;;;15.84;76.52;102447.06;4891276;29;20044;-88
2021/09/07 02:55:04;;;;;;;47.50;24.80;;;;;;;15.82;77.14;102449.81;4890948;29;20029;-87
2021/09/07 02:57:32;;;;;;;45.97;24.70;;;;;;;15.80;77.25;102451.69;4860499;29;20175;-87
2021/09/07 02:59:58;;;;;;;46.65;24.17;;;;;;;15.78;76.98;102448.22;4875058;29;20044;-87
2021/09/07 03:02:24;;;;;;;45.50;23.95;;;;;;;15.74;77.39;102445.78;4907285;29;20040;-87
2021/09/07 03:04:53;;;;;;;50.65;24.65;;;;;;;15.72;77.55;102450.34;4888729;29;20068;-88
2021/09/07 03:07:18;;;;;;;47.25;25.15;;;;;;;15.69;77.44;102451.34;4906162;29;20044;-89
2021/09/07 03:09:45;;;;;;;39.67;21.55;;;;;;;15.67;76.86;102453.25;4890166;29;20029;-88
2021/09/07 03:12:12;;;;;;;49.28;25.35;;;;;;;15.64;77.12;102450.72;4889734;29;20092;-86
2021/09/07 03:14:38;;;;;;;46.00;24.23;;;;;;;15.61;77.12;102451.72;4888675;29;20064;-88
2021/09/07 03:17:03;;;;;;;43.13;22.80;;;;;;;15.59;77.33;102450.06;4907170;29;20051;-88
2021/09/07 03:19:29;;;;;;;46.40;23.83;;;;;;;15.56;77.25;102441.28;4911712;29;20080;-87
2021/09/07 03:21:54;;;;;;;38.88;21.95;;;;;;;15.55;77.03;102447.56;4921468;29;20076;-87
2021/09/07 03:24:21;;;;;;;41.92;24.00;;;;;;;15.54;76.91;102451.19;4922005;29;20067;-87
2021/09/07 03:26:48;;;;;;;54.15;25.95;;;;;;;15.53;77.50;102446.75;4908492;29;20049;-89
2021/09/07 03:29:14;;;;;;;47.65;24.88;;;;;;;15.52;77.23;102446.84;4892112;29;20497;-90
2021/09/07 03:31:39;;;;;;;46.47;22.58;;;;;;;15.51;77.40;102438.00;4910684;29;20032;-89
2021/09/07 03:34:05;;;;;;;47.00;23.67;;;;;;;15.53;77.11;102441.44;4913587;29;20039;-88
2021/09/07 03:36:31;;;;;;;42.20;22.05;;;;;;;15.53;77.50;102440.59;4911250;29;20056;-88
2021/09/07 03:38:57;;;;;;;44.60;24.77;;;;;;;15.52;77.88;102444.16;4891042;29;20045;-88
2021/09/07 03:41:22;;;;;;;50.13;25.13;;;;;;;15.51;77.78;102446.00;4875488;29;20028;-88
2021/09/07 03:43:49;;;;;;;44.80;24.63;;;;;;;15.51;77.82;102442.44;4907877;29;20040;-87
2021/09/07 03:46:18;;;;;;;44.63;24.10;;;;;;;15.50;77.95;102438.91;4891223;29;20396;-88
2021/09/07 03:48:44;;;;;;;46.10;26.38;;;;;;;15.48;77.81;102440.81;4891005;29;20029;-88
2021/09/07 03:51:11;;;;;;;49.67;25.42;;;;;;;15.48;77.80;102435.47;4891144;29;20040;-87
2021/09/07 03:53:37;;;;;;;43.00;24.80;;;;;;;15.45;78.28;102435.63;4891460;29;20041;-87
2021/09/07 03:56:04;;;;;;;47.63;25.58;;;;;;;15.45;77.90;102436.47;4907563;29;20056;-87
2021/09/07 03:58:29;;;;;;;46.50;24.38;;;;;;;15.43;77.81;102429.50;4895540;29;20164;-87
2021/09/07 04:00:59;;;;;;;48.15;24.48;;;;;;;15.40;78.30;102426.97;4885122;29;20037;-87
2021/09/07 04:04:16;;;;;;;44.25;23.90;;;;;;;15.39;77.91;102431.44;4885911;29;20043;-87
2021/09/07 04:06:54;;;;;;;42.60;21.95;;;;;;;15.40;78.02;102424.31;4900726;29;20045;-87
2021/09/07 04:09:51;;;;;;;48.40;24.58;;;;;;;15.42;77.97;102430.44;4882654;29;20036;-87
2021/09/07 04:12:22;;;;;;;43.45;22.70;;;;;;;15.44;78.02;102432.09;4896672;29;20124;-87
2021/09/07 04:14:55;;;;;;;47.47;25.75;;;;;;;15.47;78.28;102433.72;4889892;29;20136;-87
2021/09/07 04:17:21;;;;;;;46.63;24.85;;;;;;;15.54;78.30;102435.19;4907586;29;20047;-87
2021/09/07 04:19:46;;;;;;;43.58;22.80;;;;;;;15.63;78.16;102439.19;4908603;29;20037;-87
2021/09/07 04:22:15;;;;;;;40.35;23.50;;;;;;;15.68;78.15;102433.63;4911517;29;20048;-87
2021/09/07 04:24:40;;;;;;;44.03;24.13;;;;;;;15.69;78.12;102432.69;4894084;29;20036;-85
2021/09/07 04:27:07;;;;;;;44.35;22.63;;;;;;;15.74;78.12;102435.97;4909656;29;20044;-87
2021/09/07 04:29:54;;;;;;;43.08;23.65;;;;;;;15.83;77.96;102434.66;4889387;29;20041;-86
2021/09/07 04:32:20;;;;;;;43.00;23.58;;;;;;;15.93;77.86;102437.72;4873995;29;20037;-86
2021/09/07 04:34:46;;;;;;;44.45;24.77;;;;;;;15.99;77.81;102440.13;4890809;23;20045;-88
2021/09/07 04:37:11;;;;;;;42.92;23.80;;;;;;;16.04;77.48;102437.22;4855356;29;20049;-89
2021/09/07 04:39:50;;;;;;;44.67;24.20;;;;;;;16.14;77.48;102441.16;4851202;29;20029;-89
2021/09/07 04:42:15;;;;;;;45.63;23.27;;;;;;;16.23;77.21;102439.81;4855604;29;20037;-89
2021/09/07 04:44:43;;;;;;;38.17;22.42;;;;;;;16.32;76.73;102438.47;4854566;29;20089;-88
2021/09/07 04:47:09;;;;;;;39.97;21.60;;;;;;;16.40;76.66;102441.59;4854140;29;20041;-89
2021/09/07 04:49:35;;;;;;;38.92;21.65;;;;;;;16.45;76.34;102441.34;4869573;29;20034;-89
2021/09/07 04:52:02;;;;;;;38.60;21.65;;;;;;;16.53;76.10;102443.63;4869099;29;20038;-89
2021/09/07 04:54:29;;;;;;;34.75;20.98;;;;;;;16.60;75.63;102444.16;4868280;29;20054;-88
2021/09/07 04:56:55;;;;;;;33.38;20.45;;;;;;;16.66;75.47;102446.50;4838421;29;20036;-89
2021/09/07 04:59:23;;;;;;;34.95;19.60;;;;;;;16.72;75.19;102447.97;4853444;29;20031;-89
2021/09/07 05:01:50;;;;;;;33.08;19.92;;;;;;;16.76;75.06;102439.72;4838188;29;20144;-90
2021/09/07 05:04:15;;;;;;;33.00;18.85;;;;;;;16.78;74.68;102439.63;4853439;29;20045;-91
2021/09/07 05:06:42;;;;;;;35.70;19.88;;;;;;;16.80;74.61;102441.25;4853436;29;20050;-93
2021/09/07 05:09:08;;;;;;;31.70;18.75;;;;;;;16.83;74.38;102434.91;4870245;29;20044;-92
2021/09/07 05:11:33;;;;;;;32.50;19.40;;;;;;;16.87;74.30;102438.25;4869265;29;20042;-94
2021/09/07 05:13:59;;;;;;;30.08;17.90;;;;;;;16.91;74.25;102439.84;4850106;29;20040;-94
2021/09/07 05:16:24;;;;;;;31.75;18.77;;;;;;;16.96;74.04;102447.59;4875888;29;20017;-89
2021/09/07 05:18:50;;;;;;;33.17;18.38;;;;;;;17.00;73.89;102447.34;4870948;29;20117;-89
2021/09/07 05:21:15;;;;;;;29.77;17.73;;;;;;;17.04;73.64;102445.34;4855469;29;20097;-88
2021/09/07 05:23:41;;;;;;;30.75;17.98;;;;;;;17.11;73.54;102448.59;4886575;29;20051;-89
2021/09/07 05:26:07;;;;;;;31.27;17.80;;;;;;;17.18;73.53;102455.31;4871012;29;20038;-94
2021/09/07 05:28:34;;;;;;;28.67;17.85;;;;;;;17.25;73.31;102454.03;4871448;29;20093;-96
2021/09/07 05:31:00;;;;;;;28.33;16.70;;;;;;;17.33;73.06;102458.09;4852845;29;20037;-96
2021/09/07 05:33:26;;;;;;;28.38;17.48;;;;;;;17.38;72.83;102448.88;4866263;29;20108;-94
2021/09/07 05:35:52;;;;;;;30.58;17.50;;;;;;;17.47;72.74;102455.50;4851285;29;20110;-95
2021/09/07 05:38:17;;;;;;;27.92;17.15;;;;;;;17.53;72.56;102457.81;4856795;29;20053;-95
2021/09/07 05:40:43;;;;;;;28.17;16.80;;;;;;;17.59;72.45;102464.63;4871126;29;20026;-91
2021/09/07 05:43:08;;;;;;;29.15;17.77;;;;;;;17.63;72.02;102462.63;4856622;29;20049;-96
2021/09/07 05:45:34;;;;;;;28.67;17.63;;;;;;;17.71;71.94;102472.91;4865744;29;20034;-95
2021/09/07 05:48:00;;;;;;;29.00;17.48;;;;;;;17.78;71.58;102466.22;4866907;29;20041;-96
2021/09/07 05:50:25;;;;;;;29.85;17.23;;;;;;;17.86;71.29;102463.09;4865887;29;20366;-95
2021/09/07 05:52:50;;;;;;;26.60;17.45;;;;;;;17.94;71.33;102476.91;4880303;29;20140;-93
2021/09/07 05:55:16;;;;;;;27.65;17.38;;;;;;;18.01;70.76;102469.41;4849643;29;20056;-94
2021/09/07 05:57:42;;;;;;;27.50;17.00;;;;;;;18.09;70.50;102469.78;4884151;29;20041;-96
2021/09/07 06:00:10;;;;;;;28.42;17.98;;;;;;;18.17;70.61;102469.34;4885951;29;20056;-94
2021/09/07 06:02:35;;;;;;;32.08;17.92;;;;;;;18.26;70.45;102476.00;4838377;29;20049;-94
2021/09/07 06:05:02;;;;;;;29.85;17.77;;;;;;;18.35;70.07;102463.84;4868575;29;20413;-94
2021/09/07 06:07:30;;;;;;;31.63;18.45;;;;;;;18.46;70.02;102468.56;4838807;29;20124;-96
2021/09/07 06:09:56;;;;;;;29.60;18.55;;;;;;;18.51;69.68;102467.31;4868305;29;20368;-96
2021/09/07 06:12:21;;;;;;;29.30;17.95;;;;;;;18.64;69.76;102470.09;4852662;29;20048;-94
2021/09/07 06:14:47;;;;;;;30.45;17.90;;;;;;;18.74;69.40;102469.53;4855169;29;20069;-93
2021/09/07 06:17:12;;;;;;;26.45;16.73;;;;;;;18.87;69.53;102466.97;4902648;29;20037;-90
2021/09/07 06:19:38;;;;;;;29.30;17.55;;;;;;;18.97;69.42;102462.72;4872069;29;20061;-88
2021/09/07 06:22:05;;;;;;;29.25;18.92;;;;;;;19.07;69.30;102468.38;4888767;29;20096;-90
2021/09/07 06:24:30;;;;;;;29.90;18.45;;;;;;;19.20;69.19;102462.25;4888795;29;20055;-90
2021/09/07 06:26:56;;;;;;;30.15;17.65;;;;;;;19.33;68.60;102467.69;4878455;29;20571;-94
2021/09/07 06:29:23;;;;;;;32.33;18.90;;;;;;;19.44;68.29;102459.78;4869919;29;20029;-93
2021/09/07 06:31:49;;;;;;;32.15;18.58;;;;;;;19.56;67.55;102466.19;4875282;29;20093;-89
2021/09/07 06:34:41;;;;;;;30.77;19.15;;;;;;;19.64;67.87;102466.53;4878948;29;20037;-92
2021/09/07 06:37:06;;;;;;;32.28;19.58;;;;;;;19.82;67.38;102468.94;4840534;29;20053;-92
2021/09/07 06:39:33;;;;;;;30.90;20.50;;;;;;;19.96;66.61;102464.47;4890847;29;20037;-91
2021/09/07 06:41:59;;;;;;;33.38;20.83;;;;;;;20.08;66.24;102452.09;4849909;29;20049;-89
2021/09/07 06:44:25;;;;;;;32.83;20.05;;;;;;;20.03;65.58;102455.97;4884272;29;20028;-88
2021/09/07 06:46:51;;;;;;;37.08;21.60;;;;;;;20.21;64.79;102462.84;4869845;29;20106;-90
2021/09/07 06:49:17;;;;;;;35.92;21.15;;;;;;;20.31;64.03;102458.56;4870216;29;20040;-89
2021/09/07 06:51:43;;;;;;;37.45;20.67;;;;;;;20.37;63.51;102457.25;4875871;29;20056;-92
2021/09/07 06:54:09;;;;;;;31.33;19.60;;;;;;;20.57;63.29;102460.41;4855814;29;20040;-91
2021/09/07 06:56:34;;;;;;;33.22;21.00;;;;;;;20.50;63.22;102457.28;4856446;29;20055;-92
2021/09/07 06:59:01;;;;;;;35.63;21.63;;;;;;;20.74;62.74;102453.81;4886991;29;20029;-90
2021/09/07 07:01:26;;;;;;;38.65;21.77;;;;;;;20.75;62.47;102451.03;4874701;29;20041;-90
2021/09/07 07:03:52;;;;;;;40.83;23.10;;;;;;;20.93;61.89;102456.06;4861409;29;20045;-91
2021/09/07 07:06:17;;;;;;;39.05;21.73;;;;;;;20.96;61.83;102455.00;4896056;29;20025;-89
2021/09/07 07:08:43;;;;;;;36.30;21.63;;;;;;;21.20;61.16;102456.84;4884518;29;20017;-91
2021/09/07 07:11:13;;;;;;;36.47;21.10;;;;;;;21.08;61.41;102461.31;4886570;29;20013;-92
2021/09/07 07:13:38;;;;;;;39.97;22.67;;;;;;;21.13;60.93;102453.78;4902691;29;20033;-90
2021/09/07 07:16:04;;;;;;;40.53;22.55;;;;;;;21.33;60.40;102463.06;4885949;29;20041;-88
2021/09/07 07:18:29;;;;;;;38.22;23.02;;;;;;;21.32;60.09;102466.72;4868094;29;20111;-92
2021/09/07 07:20:57;;;;;;;37.03;23.15;;;;;;;21.56;59.97;102455.09;4899949;29;20029;-92
2021/09/07 07:23:23;;;;;;;35.13;22.13;;;;;;;21.80;59.46;102458.78;4902813;29;20037;-90
2021/09/07 07:25:49;;;;;;;34.40;22.13;;;;;;;21.90;58.81;102465.22;4870940;29;20093;-91
2021/09/07 07:28:15;;;;;;;36.28;23.27;;;;;;;21.83;58.39;102467.50;4887211;29;20049;-91
2021/09/07 07:30:40;;;;;;;39.20;22.45;;;;;;;21.99;58.38;102475.28;4902685;29;20017;-92
2021/09/07 07:33:09;;;;;;;37.45;22.55;;;;;;;22.27;57.48;102472.28;4871680;29;20037;-96
2021/09/07 07:35:35;;;;;;;39.10;22.92;;;;;;;22.36;57.13;102474.25;4901041;29;20053;-93
2021/09/07 07:38:01;;;;;;;41.20;22.90;;;;;;;22.62;56.57;102484.84;4885695;29;20037;-92
2021/09/07 07:40:30;;;;;;;41.60;24.02;;;;;;;22.83;55.91;102476.03;4868941;29;20047;-91
2021/09/07 07:42:57;;;;;;;41.35;22.92;;;;;;;22.89;55.82;102480.94;4854127;29;20058;-89
2021/09/07 07:45:22;;;;;;;35.75;23.55;;;;;;;22.89;55.74;102480.09;4895518;29;20125;-89
2021/09/07 07:47:48;;;;;;;38.75;24.83;;;;;;;23.14;54.65;102478.94;4902779;29;20040;-88
2021/09/07 07:50:14;;;;;;;36.55;23.80;;;;;;;22.89;55.31;102485.50;4917710;29;20071;-93
2021/09/07 07:52:49;;;;;;;42.25;26.20;;;;;;;22.81;55.73;102491.50;4919731;29;20128;-94
2021/09/07 07:55:15;;;;;;;43.72;26.40;;;;;;;23.12;55.60;102486.31;4883441;29;20032;-77
2021/09/07 07:57:40;;;;;;;43.63;26.88;;;;;;;23.32;54.30;102485.66;4902582;29;20055;-76
2021/09/07 08:00:07;;;;;;;44.42;26.52;;;;;;;23.42;54.50;102485.78;4905565;29;20060;-78
2021/09/07 08:02:36;;;;;;;50.80;26.08;;;;;;;22.98;54.27;102482.06;4909365;29;20025;-75
2021/09/07 08:05:01;;;;;;;52.42;27.13;;;;;;;23.21;54.37;102484.72;4918796;29;20032;-74
2021/09/07 08:07:28;;;;;;;46.17;25.98;;;;;;;23.58;53.61;102485.38;4905463;29;20017;-74
2021/09/07 08:09:53;;;;;;;39.47;24.92;;;;;;;23.43;52.07;102484.81;4879889;29;20096;-74
2021/09/07 08:12:19;;;;;;;39.85;23.88;;;;;;;23.56;52.12;102488.22;4897278;29;20453;-75
2021/09/07 08:14:46;;;;;;;36.38;22.58;;;;;;;23.45;51.46;102486.41;4888888;29;20025;-78
2021/09/07 08:17:12;;;;;;;36.30;21.85;;;;;;;23.64;51.04;102495.69;4883837;29;20037;-81
2021/09/07 08:19:38;;;;;;;34.42;21.33;;;;;;;23.82;49.50;102495.09;4884503;29;20108;-80
2021/09/07 08:22:03;;;;;;;32.03;20.45;;;;;;;23.89;49.58;102494.44;4882482;29;20033;-80
2021/09/07 08:24:29;;;;;;;32.72;20.20;;;;;;;23.54;49.99;102500.09;4884141;29;20029;-80
2021/09/07 08:26:55;;;;;;;37.47;20.67;;;;;;;23.52;49.98;102498.41;4884050;29;20029;-79
2021/09/07 08:29:20;;;;;;;34.53;20.83;;;;;;;23.73;49.65;102491.34;4883443;29;20428;-82
2021/09/07 08:31:46;;;;;;;36.05;20.90;;;;;;;24.12;49.49;102494.34;4883347;29;20041;-79
2021/09/07 08:34:11;;;;;;;30.25;19.90;;;;;;;24.16;48.46;102489.59;4882761;29;20041;-80
2021/09/07 08:36:36;;;;;;;32.40;21.25;;;;;;;23.88;48.59;102487.34;4927323;23;20094;-76
2021/09/07 08:39:04;;;;;;;35.72;20.10;;;;;;;24.47;47.26;102486.94;4902314;29;20044;-76
2021/09/07 08:41:29;;;;;;;33.30;19.48;;;;;;;24.60;47.69;102485.84;4919880;29;20060;-80
2021/09/07 08:43:55;;;;;;;40.83;21.17;;;;;;;24.68;47.55;102483.31;4921281;29;20375;-75
2021/09/07 08:46:20;;;;;;;31.23;19.23;;;;;;;24.83;45.48;102486.53;4925303;29;20032;-79
2021/09/07 08:48:46;;;;;;;33.38;20.30;;;;;;;24.79;44.76;102486.94;4942760;29;20028;-77
2021/09/07 08:51:14;;;;;;;31.73;19.45;;;;;;;24.63;44.49;102491.81;4943507;29;20042;-79
2021/09/07 08:53:39;;;;;;;28.48;18.80;;;;;;;24.96;44.73;102483.59;4928000;29;20020;-76
2021/09/07 08:56:06;;;;;;;31.15;20.00;;;;;;;25.07;44.82;102481.78;4945419;29;20111;-80
2021/09/07 08:58:31;;;;;;;32.42;21.45;;;;;;;25.05;45.83;102481.91;4940104;29;20130;-78
2021/09/07 09:00:57;;;;;;;33.47;19.73;;;;;;;25.07;46.35;102484.50;4921673;29;20479;-77
2021/09/07 09:03:22;;;;;;;29.45;19.88;;;;;;;25.31;46.09;102489.53;4937929;29;20475;-76
2021/09/07 09:05:50;;;;;;;31.42;19.98;;;;;;;25.54;45.21;102485.72;4932894;29;20391;-79
2021/09/07 09:08:17;;;;;;;32.00;20.05;;;;;;;25.74;44.91;102490.19;4918955;29;20107;-74
2021/09/07 09:10:44;;;;;;;32.38;20.90;;;;;;;25.58;45.18;102489.84;4918834;29;20035;-78
2021/09/07 09:13:14;;;;;;;33.15;20.67;;;;;;;25.58;44.33;102482.56;4919045;29;20063;-77
2021/09/07 09:15:39;;;;;;;27.83;19.08;;;;;;;25.41;45.10;102489.53;4918815;29;20092;-78
2021/09/07 09:18:09;;;;;;;27.35;18.73;;;;;;;25.46;43.73;102490.00;4918676;29;20424;-78
2021/09/07 09:20:35;;;;;;;28.13;18.80;;;;;;;25.42;43.92;102495.81;4918927;29;20110;-79
2021/09/07 09:23:01;;;;;;;28.27;18.45;;;;;;;25.78;43.65;102493.44;4918712;29;20032;-75
2021/09/07 09:25:44;;;;;;;29.63;19.20;;;;;;;25.98;42.04;102501.56;4918465;29;20025;-75
2021/09/07 09:28:12;;;;;;;32.20;19.35;;;;;;;26.11;41.79;102499.41;4901587;29;20059;-76
2021/09/07 09:30:51;;;;;;;29.40;19.88;;;;;;;25.92;41.72;102494.84;4918810;29;20126;-75
2021/09/07 09:33:19;;;;;;;31.10;19.50;;;;;;;25.80;42.68;102496.00;4925532;29;20028;-76
2021/09/07 09:35:51;;;;;;;29.42;20.50;;;;;;;26.34;42.07;102498.25;4932222;29;20040;-76
2021/09/07 09:38:17;;;;;;;28.42;18.80;;;;;;;26.62;42.01;102499.16;4918215;29;20558;-75
2021/09/07 09:40:43;;;;;;;30.15;19.60;;;;;;;27.03;40.63;102498.03;4918283;29;20020;-76
2021/09/07 09:43:42;;;;;;;31.60;20.65;;;;;;;28.22;39.42;102508.00;4918163;29;20167;-78
2021/09/07 09:46:28;;;;;;;33.85;21.95;;;;;;;28.50;38.28;102501.56;4918185;29;20071;-77
2021/09/07 09:49:11;;;;;;;29.05;20.52;;;;;;;29.73;36.22;102507.63;4917537;29;20020;-77
2021/09/07 09:51:36;;;;;;;29.70;21.77;;;;;;;29.66;36.38;102496.53;4917897;29;20111;-79
2021/09/07 09:54:01;;;;;;;33.90;21.80;;;;;;;30.30;36.34;102499.56;4900576;29;20039;-79
2021/09/07 09:56:27;;;;;;;30.45;21.50;;;;;;;30.85;35.53;102488.84;4918394;29;20027;-77
2021/09/07 09:58:59;;;;;;;35.83;22.37;;;;;;;30.17;35.25;102487.28;4889242;29;20040;-80
2021/09/07 10:01:24;;;;;;;37.30;22.92;;;;;;;29.88;35.87;102488.69;4909718;29;20028;-77
2021/09/07 10:03:50;;;;;;;35.30;22.23;;;;;;;29.28;36.58;102490.66;4882515;29;20539;-76
2021/09/07 10:06:17;;;;;;;33.60;22.95;;;;;;;29.22;36.82;102484.88;4922297;29;20036;-77
2021/09/07 10:08:42;;;;;;;35.30;23.98;;;;;;;29.78;35.01;102482.56;4918585;29;20071;-78
2021/09/07 10:11:12;;;;;;;33.00;23.65;;;;;;;30.58;33.65;102478.19;4901405;29;20024;-75
2021/09/07 10:13:39;;;;;;;31.05;21.67;;;;;;;30.86;33.41;102473.31;4900793;29;20383;-74
2021/09/07 10:16:11;;;;;;;35.53;24.05;;;;;;;31.07;32.35;102475.41;4900671;29;20040;-75
2021/09/07 10:23:55;;;;;;;29.85;21.08;;;;;;;31.36;31.51;102471.16;4917678;29;20036;-76
2021/09/07 10:26:43;;;;;;;29.15;20.02;;;;;;;31.80;30.86;102466.84;4917581;29;20036;-75
2021/09/07 10:29:13;;;;;;;27.70;19.42;;;;;;;31.59;31.87;102470.31;4822392;29;20042;-75
2021/09/07 10:31:44;;;;;;;34.78;23.48;;;;;;;31.10;31.75;102461.41;4822125;29;20046;-77
2021/09/07 10:34:11;;;;;;;31.70;22.63;;;;;;;30.53;32.26;102457.91;4822376;29;20043;-75
2021/09/07 10:36:54;;;;;;;37.58;25.85;;;;;;;30.92;32.60;102467.16;4807031;29;20047;-76
2021/09/07 10:39:29;;;;;;;32.13;21.27;;;;;;;31.17;32.09;102464.25;4832861;29;20045;-74
2021/09/07 10:41:56;;;;;;;35.40;23.05;;;;;;;30.95;31.70;102462.19;4824953;29;20042;-76
2021/09/07 10:44:24;;;;;;;32.95;23.70;;;;;;;29.84;33.12;102449.19;4840249;29;20117;-75
2021/09/07 10:46:58;;;;;;;36.00;24.70;;;;;;;29.48;33.95;102448.47;4839718;29;20046;-75
2021/09/07 10:49:33;;;;;;;34.10;20.70;;;;;;;29.23;34.67;102451.16;4825867;29;20038;-75
2021/09/07 10:52:04;;;;;;;33.08;22.90;;;;;;;29.65;34.79;102456.69;4839926;29;20030;-75
2021/09/07 10:54:29;;;;;;;31.45;21.05;;;;;;;29.53;35.69;102458.84;4840151;29;20110;-75
2021/09/07 10:56:57;;;;;;;30.77;21.40;;;;;;;29.61;34.42;102457.19;4839704;29;20086;-75
2021/09/07 10:59:45;;;;;;;28.40;21.27;;;;;;;29.50;34.58;102458.34;4809804;29;20046;-74
2021/09/07 11:02:35;;;;;;;29.98;20.77;;;;;;;29.26;35.88;102446.41;4839696;29;20038;-75
2021/09/07 11:05:05;;;;;;;25.20;19.05;;;;;;;29.30;36.36;102442.31;4842349;29;20447;-75
2021/09/07 11:07:40;;;;;;;37.95;23.60;;;;;;;29.02;36.29;102443.47;4915988;29;20039;-76
2021/09/07 11:10:25;;;;;;;36.55;24.42;;;;;;;28.62;37.14;102445.00;4916470;29;20036;-76
2021/09/07 11:12:50;;;;;;;32.00;20.23;;;;;;;28.76;36.90;102436.19;4916270;29;20524;-75
2021/09/07 11:15:17;;;;;;;34.70;23.58;;;;;;;28.80;37.14;102436.72;4926608;29;20031;-75
2021/09/07 11:17:54;;;;;;;29.90;21.60;;;;;;;28.58;37.44;102436.31;4908448;29;20324;-76
2021/09/07 11:20:21;;;;;;;27.40;19.92;;;;;;;28.81;36.51;102432.97;4916341;29;20402;-76